sensor_id;sensor_type;location;lat;lon;timestamp;P1;durP1;ratioP1;P2;durP2;ratioP2
7539;SDS011;3811;49.006;12.076;2022-12-05T00:00:26;37.43;;;16.30;;
7539;SDS011;3811;49.006;12.076;2022-12-05T00:02:53;34.53;;;16.67;;
7539;SDS011;3811;49.006;12.076;2022-12-05T00:05:22;38.43;;;15.97;;
7539;SDS011;3811;49.006;12.076;2022-12-05T00:07:49;34.13;;;14.97;;
7539;SDS011;3811;49.006;12.076;2022-12-05T00:10:16;36.80;;;15.23;;
7539;SDS011;3811;49.006;12.076;2022-12-05T00:12:43;35.63;;;15.07;;
7539;SDS011;3811;49.006;12.076;2022-12-05T00:15:11;33.00;;;15.57;;
7539;SDS011;3811;49.006;12.076;2022-12-05T00:17:38;26.57;;;13.20;;
7539;SDS011;3811;49.006;12.076;2022-12-05T00:20:06;30.23;;;12.53;;
7539;SDS011;3811;49.006;12.076;2022-12-05T00:22:35;30.43;;;14.00;;
7539;SDS011;3811;49.006;12.076;2022-12-05T00:25:03;28.57;;;12.60;;
7539;SDS011;3811;49.006;12.076;2022-12-05T00:27:31;25.40;;;13.33;;
7539;SDS011;3811;49.006;12.076;2022-12-05T00:29:58;24.90;;;13.07;;
7539;SDS011;3811;49.006;12.076;2022-12-05T00:32:27;28.83;;;12.60;;
7539;SDS011;3811;49.006;12.076;2022-12-05T00:34:54;23.30;;;12.10;;
7539;SDS011;3811;49.006;12.076;2022-12-05T00:37:22;28.37;;;13.87;;
7539;SDS011;3811;49.006;12.076;2022-12-05T00:39:50;24.80;;;13.87;;
7539;SDS011;3811;49.006;12.076;2022-12-05T00:42:17;24.27;;;11.83;;
7539;SDS011;3811;49.006;12.076;2022-12-05T00:44:45;23.07;;;12.93;;
7539;SDS011;3811;49.006;12.076;2022-12-05T00:47:14;29.80;;;13.27;;
7539;SDS011;3811;49.006;12.076;2022-12-05T00:49:42;27.60;;;13.13;;
7539;SDS011;3811;49.006;12.076;2022-12-05T00:52:09;26.93;;;13.30;;
7539;SDS011;3811;49.006;12.076;2022-12-05T00:54:37;28.20;;;14.33;;
7539;SDS011;3811;49.006;12.076;2022-12-05T00:57:05;27.53;;;12.50;;
7539;SDS011;3811;49.006;12.076;2022-12-05T00:59:33;25.50;;;11.87;;
7539;SDS011;3811;49.006;12.076;2022-12-05T01:02:00;23.53;;;12.50;;
7539;SDS011;3811;49.006;12.076;2022-12-05T01:04:27;30.13;;;13.33;;
7539;SDS011;3811;49.006;12.076;2022-12-05T01:07:02;22.53;;;12.40;;
7539;SDS011;3811;49.006;12.076;2022-12-05T01:09:29;24.77;;;10.77;;
7539;SDS011;3811;49.006;12.076;2022-12-05T01:11:56;23.60;;;12.63;;
7539;SDS011;3811;49.006;12.076;2022-12-05T01:14:25;23.90;;;11.83;;
7539;SDS011;3811;49.006;12.076;2022-12-05T01:16:53;26.47;;;11.30;;
7539;SDS011;3811;49.006;12.076;2022-12-05T01:19:22;25.20;;;11.43;;
7539;SDS011;3811;49.006;12.076;2022-12-05T01:21:50;22.83;;;11.80;;
7539;SDS011;3811;49.006;12.076;2022-12-05T01:24:18;22.33;;;10.97;;
7539;SDS011;3811;49.006;12.076;2022-12-05T01:26:46;23.90;;;11.80;;
7539;SDS011;3811;49.006;12.076;2022-12-05T01:29:14;22.23;;;11.87;;
7539;SDS011;3811;49.006;12.076;2022-12-05T01:31:43;23.07;;;11.77;;
7539;SDS011;3811;49.006;12.076;2022-12-05T01:34:11;21.43;;;10.73;;
7539;SDS011;3811;49.006;12.076;2022-12-05T01:36:38;22.73;;;10.43;;
7539;SDS011;3811;49.006;12.076;2022-12-05T01:39:06;20.53;;;10.30;;
7539;SDS011;3811;49.006;12.076;2022-12-05T01:41:36;21.27;;;11.83;;
7539;SDS011;3811;49.006;12.076;2022-12-05T01:44:06;20.87;;;11.17;;
7539;SDS011;3811;49.006;12.076;2022-12-05T01:46:34;19.97;;;10.53;;
7539;SDS011;3811;49.006;12.076;2022-12-05T01:49:05;20.90;;;11.17;;
7539;SDS011;3811;49.006;12.076;2022-12-05T01:51:46;24.03;;;11.33;;
7539;SDS011;3811;49.006;12.076;2022-12-05T01:54:15;19.07;;;10.40;;
7539;SDS011;3811;49.006;12.076;2022-12-05T01:56:44;20.10;;;10.60;;
7539;SDS011;3811;49.006;12.076;2022-12-05T01:59:14;20.63;;;10.50;;
7539;SDS011;3811;49.006;12.076;2022-12-05T02:01:43;24.57;;;10.73;;
7539;SDS011;3811;49.006;12.076;2022-12-05T02:04:12;19.20;;;11.60;;
7539;SDS011;3811;49.006;12.076;2022-12-05T02:06:40;22.13;;;10.97;;
7539;SDS011;3811;49.006;12.076;2022-12-05T02:09:07;19.07;;;11.13;;
7539;SDS011;3811;49.006;12.076;2022-12-05T02:11:35;20.93;;;10.63;;
7539;SDS011;3811;49.006;12.076;2022-12-05T02:14:14;22.23;;;10.53;;
7539;SDS011;3811;49.006;12.076;2022-12-05T02:16:51;19.50;;;10.17;;
7539;SDS011;3811;49.006;12.076;2022-12-05T02:19:36;17.63;;;10.57;;
7539;SDS011;3811;49.006;12.076;2022-12-05T02:22:26;19.43;;;10.60;;
7539;SDS011;3811;49.006;12.076;2022-12-05T02:25:04;16.57;;;10.53;;
7539;SDS011;3811;49.006;12.076;2022-12-05T02:27:47;17.23;;;10.57;;
7539;SDS011;3811;49.006;12.076;2022-12-05T02:30:34;18.10;;;10.03;;
7539;SDS011;3811;49.006;12.076;2022-12-05T02:33:07;21.50;;;10.93;;
7539;SDS011;3811;49.006;12.076;2022-12-05T02:35:45;17.63;;;10.13;;
7539;SDS011;3811;49.006;12.076;2022-12-05T02:38:21;18.93;;;9.87;;
7539;SDS011;3811;49.006;12.076;2022-12-05T02:40:54;19.60;;;10.10;;
7539;SDS011;3811;49.006;12.076;2022-12-05T02:43:23;17.93;;;10.27;;
7539;SDS011;3811;49.006;12.076;2022-12-05T02:45:57;22.47;;;10.50;;
7539;SDS011;3811;49.006;12.076;2022-12-05T02:48:27;19.20;;;10.70;;
7539;SDS011;3811;49.006;12.076;2022-12-05T02:50:54;20.93;;;10.13;;
7539;SDS011;3811;49.006;12.076;2022-12-05T02:53:24;18.97;;;10.07;;
7539;SDS011;3811;49.006;12.076;2022-12-05T02:55:54;20.60;;;9.83;;
7539;SDS011;3811;49.006;12.076;2022-12-05T02:58:23;15.07;;;8.60;;
7539;SDS011;3811;49.006;12.076;2022-12-05T03:00:54;19.40;;;9.83;;
7539;SDS011;3811;49.006;12.076;2022-12-05T03:03:23;16.83;;;9.63;;
7539;SDS011;3811;49.006;12.076;2022-12-05T03:05:54;11.37;;;6.87;;
7539;SDS011;3811;49.006;12.076;2022-12-05T03:08:26;13.43;;;8.70;;
7539;SDS011;3811;49.006;12.076;2022-12-05T03:10:55;15.00;;;7.57;;
7539;SDS011;3811;49.006;12.076;2022-12-05T03:13:27;13.33;;;7.47;;
7539;SDS011;3811;49.006;12.076;2022-12-05T03:15:59;11.73;;;6.63;;
7539;SDS011;3811;49.006;12.076;2022-12-05T03:18:33;11.53;;;7.13;;
7539;SDS011;3811;49.006;12.076;2022-12-05T03:21:04;11.30;;;7.30;;
7539;SDS011;3811;49.006;12.076;2022-12-05T03:23:41;11.53;;;7.03;;
7539;SDS011;3811;49.006;12.076;2022-12-05T03:26:15;12.17;;;8.00;;
7539;SDS011;3811;49.006;12.076;2022-12-05T03:28:53;10.80;;;7.97;;
7539;SDS011;3811;49.006;12.076;2022-12-05T03:31:30;11.70;;;7.57;;
7539;SDS011;3811;49.006;12.076;2022-12-05T03:34:05;9.83;;;7.30;;
7539;SDS011;3811;49.006;12.076;2022-12-05T03:36:39;10.97;;;7.70;;
7539;SDS011;3811;49.006;12.076;2022-12-05T03:39:09;12.83;;;7.80;;
7539;SDS011;3811;49.006;12.076;2022-12-05T03:41:45;10.00;;;6.90;;
7539;SDS011;3811;49.006;12.076;2022-12-05T03:44:21;11.73;;;6.87;;
7539;SDS011;3811;49.006;12.076;2022-12-05T03:46:52;13.23;;;8.20;;
7539;SDS011;3811;49.006;12.076;2022-12-05T03:49:23;11.80;;;7.67;;
7539;SDS011;3811;49.006;12.076;2022-12-05T03:51:54;12.83;;;7.27;;
7539;SDS011;3811;49.006;12.076;2022-12-05T03:54:25;12.23;;;8.17;;
7539;SDS011;3811;49.006;12.076;2022-12-05T03:56:55;11.63;;;7.33;;
7539;SDS011;3811;49.006;12.076;2022-12-05T03:59:26;14.20;;;7.97;;
7539;SDS011;3811;49.006;12.076;2022-12-05T04:01:58;12.43;;;7.37;;
7539;SDS011;3811;49.006;12.076;2022-12-05T04:04:30;12.77;;;7.60;;
7539;SDS011;3811;49.006;12.076;2022-12-05T04:07:02;9.83;;;7.40;;
7539;SDS011;3811;49.006;12.076;2022-12-05T04:09:32;15.00;;;8.40;;
7539;SDS011;3811;49.006;12.076;2022-12-05T04:12:03;12.77;;;7.60;;
7539;SDS011;3811;49.006;12.076;2022-12-05T04:14:34;10.70;;;7.40;;
7539;SDS011;3811;49.006;12.076;2022-12-05T04:17:05;16.97;;;8.43;;
7539;SDS011;3811;49.006;12.076;2022-12-05T04:19:36;15.27;;;8.17;;
7539;SDS011;3811;49.006;12.076;2022-12-05T04:22:23;12.90;;;8.57;;
7539;SDS011;3811;49.006;12.076;2022-12-05T04:24:51;12.70;;;8.20;;
7539;SDS011;3811;49.006;12.076;2022-12-05T04:27:38;13.47;;;8.67;;
7539;SDS011;3811;49.006;12.076;2022-12-05T04:30:11;14.17;;;8.47;;
7539;SDS011;3811;49.006;12.076;2022-12-05T04:32:42;11.13;;;8.27;;
7539;SDS011;3811;49.006;12.076;2022-12-05T04:35:17;13.43;;;7.37;;
7539;SDS011;3811;49.006;12.076;2022-12-05T04:37:51;16.50;;;9.13;;
7539;SDS011;3811;49.006;12.076;2022-12-05T04:40:23;16.50;;;8.60;;
7539;SDS011;3811;49.006;12.076;2022-12-05T04:42:53;12.50;;;8.23;;
7539;SDS011;3811;49.006;12.076;2022-12-05T04:45:21;14.93;;;8.90;;
7539;SDS011;3811;49.006;12.076;2022-12-05T04:47:57;16.13;;;8.77;;
7539;SDS011;3811;49.006;12.076;2022-12-05T04:50:30;13.40;;;7.73;;
7539;SDS011;3811;49.006;12.076;2022-12-05T04:52:58;15.43;;;9.40;;
7539;SDS011;3811;49.006;12.076;2022-12-05T04:55:27;13.87;;;8.10;;
7539;SDS011;3811;49.006;12.076;2022-12-05T04:58:00;15.63;;;9.43;;
7539;SDS011;3811;49.006;12.076;2022-12-05T05:00:31;18.70;;;9.27;;
7539;SDS011;3811;49.006;12.076;2022-12-05T05:03:09;16.53;;;8.80;;
7539;SDS011;3811;49.006;12.076;2022-12-05T05:05:40;15.07;;;8.20;;
7539;SDS011;3811;49.006;12.076;2022-12-05T05:08:14;15.70;;;7.80;;
7539;SDS011;3811;49.006;12.076;2022-12-05T05:10:44;12.40;;;8.03;;
7539;SDS011;3811;49.006;12.076;2022-12-05T05:13:17;15.30;;;7.57;;
7539;SDS011;3811;49.006;12.076;2022-12-05T05:15:44;15.17;;;8.57;;
7539;SDS011;3811;49.006;12.076;2022-12-05T05:18:13;13.30;;;7.63;;
7539;SDS011;3811;49.006;12.076;2022-12-05T05:20:40;13.87;;;8.20;;
7539;SDS011;3811;49.006;12.076;2022-12-05T05:23:07;16.63;;;8.77;;
7539;SDS011;3811;49.006;12.076;2022-12-05T05:25:35;17.13;;;8.37;;
7539;SDS011;3811;49.006;12.076;2022-12-05T05:28:02;18.07;;;9.23;;
7539;SDS011;3811;49.006;12.076;2022-12-05T05:30:32;16.57;;;8.30;;
7539;SDS011;3811;49.006;12.076;2022-12-05T05:33:00;18.37;;;9.53;;
7539;SDS011;3811;49.006;12.076;2022-12-05T05:35:28;16.13;;;8.63;;
7539;SDS011;3811;49.006;12.076;2022-12-05T05:37:55;16.33;;;9.40;;
7539;SDS011;3811;49.006;12.076;2022-12-05T05:40:23;22.47;;;10.53;;
7539;SDS011;3811;49.006;12.076;2022-12-05T05:42:50;18.70;;;9.03;;
7539;SDS011;3811;49.006;12.076;2022-12-05T05:45:17;16.83;;;9.87;;
7539;SDS011;3811;49.006;12.076;2022-12-05T05:47:46;22.37;;;12.87;;
7539;SDS011;3811;49.006;12.076;2022-12-05T05:50:14;16.20;;;10.30;;
7539;SDS011;3811;49.006;12.076;2022-12-05T05:52:43;21.37;;;12.53;;
7539;SDS011;3811;49.006;12.076;2022-12-05T05:55:10;18.50;;;10.10;;
7539;SDS011;3811;49.006;12.076;2022-12-05T05:57:38;20.00;;;12.20;;
7539;SDS011;3811;49.006;12.076;2022-12-05T06:00:06;19.43;;;10.80;;
7539;SDS011;3811;49.006;12.076;2022-12-05T06:02:34;16.37;;;10.10;;
7539;SDS011;3811;49.006;12.076;2022-12-05T06:05:02;16.53;;;10.00;;
7539;SDS011;3811;49.006;12.076;2022-12-05T06:07:30;16.23;;;10.00;;
7539;SDS011;3811;49.006;12.076;2022-12-05T06:09:58;16.87;;;10.27;;
7539;SDS011;3811;49.006;12.076;2022-12-05T06:12:26;16.73;;;10.03;;
7539;SDS011;3811;49.006;12.076;2022-12-05T06:14:53;19.50;;;10.83;;
7539;SDS011;3811;49.006;12.076;2022-12-05T06:17:20;20.43;;;11.60;;
7539;SDS011;3811;49.006;12.076;2022-12-05T06:19:47;16.73;;;10.90;;
7539;SDS011;3811;49.006;12.076;2022-12-05T06:22:15;21.07;;;10.70;;
7539;SDS011;3811;49.006;12.076;2022-12-05T06:24:42;16.53;;;9.93;;
7539;SDS011;3811;49.006;12.076;2022-12-05T06:27:11;18.03;;;10.17;;
7539;SDS011;3811;49.006;12.076;2022-12-05T06:32:10;18.03;;;10.60;;
7539;SDS011;3811;49.006;12.076;2022-12-05T06:34:38;15.67;;;9.30;;
7539;SDS011;3811;49.006;12.076;2022-12-05T06:37:06;17.07;;;10.57;;
7539;SDS011;3811;49.006;12.076;2022-12-05T06:39:33;19.93;;;11.00;;
7539;SDS011;3811;49.006;12.076;2022-12-05T06:42:00;19.83;;;10.03;;
7539;SDS011;3811;49.006;12.076;2022-12-05T06:44:29;19.07;;;10.07;;
7539;SDS011;3811;49.006;12.076;2022-12-05T06:46:56;19.93;;;10.13;;
7539;SDS011;3811;49.006;12.076;2022-12-05T06:49:24;17.73;;;10.43;;
7539;SDS011;3811;49.006;12.076;2022-12-05T06:51:56;16.83;;;9.13;;
7539;SDS011;3811;49.006;12.076;2022-12-05T06:54:23;16.53;;;9.43;;
7539;SDS011;3811;49.006;12.076;2022-12-05T06:56:50;18.33;;;10.30;;
7539;SDS011;3811;49.006;12.076;2022-12-05T06:59:17;20.63;;;10.90;;
7539;SDS011;3811;49.006;12.076;2022-12-05T07:01:46;21.80;;;9.47;;
7539;SDS011;3811;49.006;12.076;2022-12-05T07:04:13;17.63;;;10.07;;
7539;SDS011;3811;49.006;12.076;2022-12-05T07:06:42;18.40;;;9.43;;
7539;SDS011;3811;49.006;12.076;2022-12-05T07:09:09;20.27;;;9.77;;
7539;SDS011;3811;49.006;12.076;2022-12-05T07:11:36;21.47;;;10.23;;
7539;SDS011;3811;49.006;12.076;2022-12-05T07:14:04;23.60;;;11.60;;
7539;SDS011;3811;49.006;12.076;2022-12-05T07:16:33;24.93;;;10.50;;
7539;SDS011;3811;49.006;12.076;2022-12-05T07:19:02;24.17;;;11.00;;
7539;SDS011;3811;49.006;12.076;2022-12-05T07:21:29;21.67;;;11.47;;
7539;SDS011;3811;49.006;12.076;2022-12-05T07:23:57;17.90;;;10.67;;
7539;SDS011;3811;49.006;12.076;2022-12-05T07:26:24;21.17;;;11.17;;
7539;SDS011;3811;49.006;12.076;2022-12-05T07:28:53;22.20;;;10.53;;
7539;SDS011;3811;49.006;12.076;2022-12-05T07:31:21;19.73;;;9.70;;
7539;SDS011;3811;49.006;12.076;2022-12-05T07:33:50;25.13;;;11.23;;
7539;SDS011;3811;49.006;12.076;2022-12-05T07:36:19;20.50;;;10.10;;
7539;SDS011;3811;49.006;12.076;2022-12-05T07:38:47;17.80;;;9.87;;
7539;SDS011;3811;49.006;12.076;2022-12-05T07:41:16;20.90;;;9.73;;
7539;SDS011;3811;49.006;12.076;2022-12-05T07:43:45;20.30;;;10.03;;
7539;SDS011;3811;49.006;12.076;2022-12-05T07:46:12;20.33;;;10.63;;
7539;SDS011;3811;49.006;12.076;2022-12-05T07:48:40;16.83;;;10.30;;
7539;SDS011;3811;49.006;12.076;2022-12-05T07:51:08;21.53;;;11.30;;
7539;SDS011;3811;49.006;12.076;2022-12-05T07:53:37;16.43;;;10.30;;
7539;SDS011;3811;49.006;12.076;2022-12-05T07:56:06;23.63;;;10.70;;
7539;SDS011;3811;49.006;12.076;2022-12-05T07:58:34;18.93;;;10.53;;
7539;SDS011;3811;49.006;12.076;2022-12-05T08:01:05;20.17;;;10.67;;
7539;SDS011;3811;49.006;12.076;2022-12-05T08:03:33;22.40;;;11.33;;
7539;SDS011;3811;49.006;12.076;2022-12-05T08:06:01;23.43;;;12.03;;
7539;SDS011;3811;49.006;12.076;2022-12-05T08:08:29;26.63;;;13.07;;
7539;SDS011;3811;49.006;12.076;2022-12-05T08:11:03;23.37;;;12.97;;
7539;SDS011;3811;49.006;12.076;2022-12-05T08:13:30;27.63;;;14.27;;
7539;SDS011;3811;49.006;12.076;2022-12-05T08:16:01;28.63;;;13.53;;
7539;SDS011;3811;49.006;12.076;2022-12-05T08:18:29;32.03;;;14.53;;
7539;SDS011;3811;49.006;12.076;2022-12-05T08:21:01;23.97;;;12.33;;
7539;SDS011;3811;49.006;12.076;2022-12-05T08:23:28;32.03;;;14.77;;
7539;SDS011;3811;49.006;12.076;2022-12-05T08:25:59;33.43;;;15.07;;
7539;SDS011;3811;49.006;12.076;2022-12-05T08:28:29;34.67;;;14.10;;
7539;SDS011;3811;49.006;12.076;2022-12-05T08:31:01;30.20;;;14.00;;
7539;SDS011;3811;49.006;12.076;2022-12-05T08:33:29;28.37;;;15.37;;
7539;SDS011;3811;49.006;12.076;2022-12-05T08:35:56;36.10;;;16.07;;
7539;SDS011;3811;49.006;12.076;2022-12-05T08:38:25;29.00;;;14.63;;
7539;SDS011;3811;49.006;12.076;2022-12-05T08:40:53;28.00;;;13.53;;
7539;SDS011;3811;49.006;12.076;2022-12-05T08:43:20;27.50;;;13.87;;
7539;SDS011;3811;49.006;12.076;2022-12-05T08:45:49;29.60;;;14.37;;
7539;SDS011;3811;49.006;12.076;2022-12-05T08:48:20;27.10;;;13.27;;
7539;SDS011;3811;49.006;12.076;2022-12-05T08:50:47;33.50;;;15.37;;
7539;SDS011;3811;49.006;12.076;2022-12-05T08:53:14;27.80;;;13.63;;
7539;SDS011;3811;49.006;12.076;2022-12-05T08:55:42;27.63;;;13.70;;
7539;SDS011;3811;49.006;12.076;2022-12-05T08:58:10;28.63;;;14.10;;
7539;SDS011;3811;49.006;12.076;2022-12-05T09:00:37;30.80;;;15.53;;
7539;SDS011;3811;49.006;12.076;2022-12-05T09:03:06;30.60;;;14.20;;
7539;SDS011;3811;49.006;12.076;2022-12-05T09:05:35;23.10;;;13.20;;
7539;SDS011;3811;49.006;12.076;2022-12-05T09:08:02;24.53;;;14.83;;
7539;SDS011;3811;49.006;12.076;2022-12-05T09:10:29;24.67;;;13.73;;
7539;SDS011;3811;49.006;12.076;2022-12-05T09:12:57;29.37;;;14.20;;
7539;SDS011;3811;49.006;12.076;2022-12-05T09:15:24;30.63;;;16.03;;
7539;SDS011;3811;49.006;12.076;2022-12-05T09:17:51;29.13;;;14.10;;
7539;SDS011;3811;49.006;12.076;2022-12-05T09:20:20;27.97;;;14.00;;
7539;SDS011;3811;49.006;12.076;2022-12-05T09:22:47;25.83;;;13.87;;
7539;SDS011;3811;49.006;12.076;2022-12-05T09:25:15;30.87;;;14.70;;
7539;SDS011;3811;49.006;12.076;2022-12-05T09:27:42;26.07;;;14.20;;
7539;SDS011;3811;49.006;12.076;2022-12-05T09:30:11;25.00;;;14.13;;
7539;SDS011;3811;49.006;12.076;2022-12-05T09:32:38;30.87;;;14.90;;
7539;SDS011;3811;49.006;12.076;2022-12-05T09:35:05;26.83;;;14.37;;
7539;SDS011;3811;49.006;12.076;2022-12-05T09:37:34;27.73;;;14.23;;
7539;SDS011;3811;49.006;12.076;2022-12-05T09:40:01;24.83;;;13.00;;
7539;SDS011;3811;49.006;12.076;2022-12-05T09:42:34;28.90;;;15.23;;
7539;SDS011;3811;49.006;12.076;2022-12-05T09:45:08;28.17;;;14.83;;
7539;SDS011;3811;49.006;12.076;2022-12-05T09:47:45;33.03;;;15.77;;
7539;SDS011;3811;49.006;12.076;2022-12-05T09:50:18;28.60;;;14.30;;
7539;SDS011;3811;49.006;12.076;2022-12-05T09:53:02;33.90;;;16.13;;
7539;SDS011;3811;49.006;12.076;2022-12-05T09:55:37;27.63;;;13.87;;
7539;SDS011;3811;49.006;12.076;2022-12-05T09:58:20;27.03;;;14.10;;
7539;SDS011;3811;49.006;12.076;2022-12-05T10:00:52;25.33;;;13.53;;
7539;SDS011;3811;49.006;12.076;2022-12-05T10:03:25;28.30;;;13.93;;
7539;SDS011;3811;49.006;12.076;2022-12-05T10:05:58;29.67;;;13.63;;
7539;SDS011;3811;49.006;12.076;2022-12-05T10:08:35;24.17;;;13.47;;
7539;SDS011;3811;49.006;12.076;2022-12-05T10:11:07;27.53;;;13.63;;
7539;SDS011;3811;49.006;12.076;2022-12-05T10:13:44;28.67;;;14.13;;
7539;SDS011;3811;49.006;12.076;2022-12-05T10:16:20;28.17;;;15.43;;
7539;SDS011;3811;49.006;12.076;2022-12-05T10:18:51;24.17;;;13.30;;
7539;SDS011;3811;49.006;12.076;2022-12-05T10:21:22;23.80;;;13.40;;
7539;SDS011;3811;49.006;12.076;2022-12-05T10:23:58;27.73;;;14.27;;
7539;SDS011;3811;49.006;12.076;2022-12-05T10:26:29;26.43;;;14.30;;
7539;SDS011;3811;49.006;12.076;2022-12-05T10:29:01;40.90;;;21.30;;
7539;SDS011;3811;49.006;12.076;2022-12-05T10:31:29;39.33;;;19.50;;
7539;SDS011;3811;49.006;12.076;2022-12-05T10:34:01;27.80;;;14.13;;
7539;SDS011;3811;49.006;12.076;2022-12-05T10:36:31;22.20;;;12.10;;
7539;SDS011;3811;49.006;12.076;2022-12-05T10:39:00;24.67;;;13.73;;
7539;SDS011;3811;49.006;12.076;2022-12-05T10:41:27;21.43;;;12.27;;
7539;SDS011;3811;49.006;12.076;2022-12-05T10:43:55;24.03;;;12.23;;
7539;SDS011;3811;49.006;12.076;2022-12-05T10:46:24;29.47;;;16.17;;
7539;SDS011;3811;49.006;12.076;2022-12-05T10:48:52;27.23;;;12.90;;
7539;SDS011;3811;49.006;12.076;2022-12-05T10:51:21;26.77;;;12.77;;
7539;SDS011;3811;49.006;12.076;2022-12-05T10:53:50;25.23;;;12.67;;
7539;SDS011;3811;49.006;12.076;2022-12-05T10:59:09;24.67;;;12.17;;
7539;SDS011;3811;49.006;12.076;2022-12-05T11:01:37;23.27;;;12.30;;
7539;SDS011;3811;49.006;12.076;2022-12-05T11:04:17;21.90;;;12.03;;
7539;SDS011;3811;49.006;12.076;2022-12-05T11:06:49;21.80;;;11.87;;
7539;SDS011;3811;49.006;12.076;2022-12-05T11:09:21;28.43;;;12.37;;
7539;SDS011;3811;49.006;12.076;2022-12-05T11:14:58;20.73;;;11.20;;
7539;SDS011;3811;49.006;12.076;2022-12-05T11:17:34;16.37;;;10.87;;
7539;SDS011;3811;49.006;12.076;2022-12-05T11:20:02;22.53;;;10.93;;
7539;SDS011;3811;49.006;12.076;2022-12-05T11:22:51;22.07;;;11.77;;
7539;SDS011;3811;49.006;12.076;2022-12-05T11:25:24;23.27;;;11.47;;
7539;SDS011;3811;49.006;12.076;2022-12-05T11:27:56;23.80;;;11.67;;
7539;SDS011;3811;49.006;12.076;2022-12-05T11:30:26;23.47;;;10.87;;
7539;SDS011;3811;49.006;12.076;2022-12-05T11:33:09;23.83;;;12.67;;
7539;SDS011;3811;49.006;12.076;2022-12-05T11:35:37;24.83;;;12.23;;
7539;SDS011;3811;49.006;12.076;2022-12-05T11:38:05;23.93;;;11.43;;
7539;SDS011;3811;49.006;12.076;2022-12-05T11:40:33;19.27;;;10.53;;
7539;SDS011;3811;49.006;12.076;2022-12-05T11:43:18;20.83;;;11.17;;
7539;SDS011;3811;49.006;12.076;2022-12-05T11:46:03;16.70;;;10.97;;
7539;SDS011;3811;49.006;12.076;2022-12-05T11:48:43;14.77;;;9.43;;
7539;SDS011;3811;49.006;12.076;2022-12-05T11:51:18;15.63;;;9.43;;
7539;SDS011;3811;49.006;12.076;2022-12-05T11:53:55;16.60;;;10.33;;
7539;SDS011;3811;49.006;12.076;2022-12-05T11:56:34;14.00;;;8.70;;
7539;SDS011;3811;49.006;12.076;2022-12-05T11:59:17;15.17;;;9.33;;
7539;SDS011;3811;49.006;12.076;2022-12-05T12:01:57;14.57;;;9.13;;
7539;SDS011;3811;49.006;12.076;2022-12-05T12:04:37;14.87;;;9.63;;
7539;SDS011;3811;49.006;12.076;2022-12-05T12:07:24;14.50;;;8.97;;
7539;SDS011;3811;49.006;12.076;2022-12-05T12:10:07;12.23;;;8.03;;
7539;SDS011;3811;49.006;12.076;2022-12-05T12:12:43;14.90;;;8.40;;
7539;SDS011;3811;49.006;12.076;2022-12-05T12:18:39;15.43;;;8.03;;
7539;SDS011;3811;49.006;12.076;2022-12-05T12:21:12;13.27;;;7.30;;
7539;SDS011;3811;49.006;12.076;2022-12-05T12:23:48;11.30;;;7.47;;
7539;SDS011;3811;49.006;12.076;2022-12-05T12:26:29;10.87;;;6.73;;
7539;SDS011;3811;49.006;12.076;2022-12-05T12:29:08;11.00;;;6.90;;
7539;SDS011;3811;49.006;12.076;2022-12-05T12:31:39;11.97;;;6.30;;
7539;SDS011;3811;49.006;12.076;2022-12-05T12:34:25;10.60;;;6.07;;
7539;SDS011;3811;49.006;12.076;2022-12-05T12:37:05;8.83;;;6.23;;
7539;SDS011;3811;49.006;12.076;2022-12-05T12:39:43;8.43;;;5.70;;
7539;SDS011;3811;49.006;12.076;2022-12-05T12:42:19;7.90;;;5.57;;
7539;SDS011;3811;49.006;12.076;2022-12-05T12:45:04;7.67;;;5.67;;
7539;SDS011;3811;49.006;12.076;2022-12-05T12:47:59;8.17;;;5.83;;
7539;SDS011;3811;49.006;12.076;2022-12-05T12:50:38;11.63;;;6.63;;
7539;SDS011;3811;49.006;12.076;2022-12-05T12:56:11;10.60;;;7.00;;
7539;SDS011;3811;49.006;12.076;2022-12-05T12:58:46;10.90;;;5.67;;
7539;SDS011;3811;49.006;12.076;2022-12-05T13:01:20;8.57;;;6.37;;
7539;SDS011;3811;49.006;12.076;2022-12-05T13:03:57;9.97;;;6.07;;
7539;SDS011;3811;49.006;12.076;2022-12-05T13:06:33;9.13;;;6.37;;
7539;SDS011;3811;49.006;12.076;2022-12-05T13:09:10;10.27;;;6.70;;
7539;SDS011;3811;49.006;12.076;2022-12-05T13:11:41;6.97;;;5.53;;
7539;SDS011;3811;49.006;12.076;2022-12-05T13:14:11;9.10;;;6.87;;
7539;SDS011;3811;49.006;12.076;2022-12-05T13:16:41;11.80;;;5.97;;
7539;SDS011;3811;49.006;12.076;2022-12-05T13:19:23;8.80;;;5.97;;
7539;SDS011;3811;49.006;12.076;2022-12-05T13:21:53;11.00;;;6.67;;
7539;SDS011;3811;49.006;12.076;2022-12-05T13:24:24;7.97;;;6.20;;
7539;SDS011;3811;49.006;12.076;2022-12-05T13:26:52;10.17;;;6.43;;
7539;SDS011;3811;49.006;12.076;2022-12-05T13:29:21;13.13;;;8.43;;
7539;SDS011;3811;49.006;12.076;2022-12-05T13:31:54;10.93;;;7.37;;
7539;SDS011;3811;49.006;12.076;2022-12-05T13:34:37;10.60;;;7.10;;
7539;SDS011;3811;49.006;12.076;2022-12-05T13:37:19;8.97;;;6.33;;
7539;SDS011;3811;49.006;12.076;2022-12-05T13:40:08;8.80;;;6.77;;
7539;SDS011;3811;49.006;12.076;2022-12-05T13:43:07;8.60;;;6.27;;
7539;SDS011;3811;49.006;12.076;2022-12-05T13:45:35;9.10;;;7.17;;
7539;SDS011;3811;49.006;12.076;2022-12-05T13:48:07;9.83;;;6.67;;
7539;SDS011;3811;49.006;12.076;2022-12-05T13:50:45;10.87;;;7.80;;
7539;SDS011;3811;49.006;12.076;2022-12-05T13:53:22;11.23;;;8.17;;
7539;SDS011;3811;49.006;12.076;2022-12-05T13:55:55;7.97;;;5.97;;
7539;SDS011;3811;49.006;12.076;2022-12-05T14:10:08;11.73;;;6.03;;
7539;SDS011;3811;49.006;12.076;2022-12-05T14:12:45;8.77;;;6.13;;
7539;SDS011;3811;49.006;12.076;2022-12-05T14:15:24;9.70;;;5.80;;
7539;SDS011;3811;49.006;12.076;2022-12-05T14:17:59;6.47;;;5.83;;
7539;SDS011;3811;49.006;12.076;2022-12-05T14:23:42;9.57;;;6.73;;
7539;SDS011;3811;49.006;12.076;2022-12-05T14:26:31;11.67;;;8.17;;
7539;SDS011;3811;49.006;12.076;2022-12-05T14:29:03;12.37;;;7.93;;
7539;SDS011;3811;49.006;12.076;2022-12-05T14:31:45;9.67;;;7.10;;
7539;SDS011;3811;49.006;12.076;2022-12-05T14:34:22;12.53;;;8.20;;
7539;SDS011;3811;49.006;12.076;2022-12-05T14:36:55;12.70;;;7.87;;
7539;SDS011;3811;49.006;12.076;2022-12-05T14:39:30;20.33;;;11.87;;
7539;SDS011;3811;49.006;12.076;2022-12-05T14:42:18;15.57;;;11.83;;
7539;SDS011;3811;49.006;12.076;2022-12-05T14:44:50;15.40;;;10.23;;
7539;SDS011;3811;49.006;12.076;2022-12-05T14:47:20;21.70;;;14.97;;
7539;SDS011;3811;49.006;12.076;2022-12-05T14:49:52;17.63;;;11.90;;
7539;SDS011;3811;49.006;12.076;2022-12-05T14:52:23;16.97;;;10.97;;
7539;SDS011;3811;49.006;12.076;2022-12-05T14:54:51;14.53;;;8.97;;
7539;SDS011;3811;49.006;12.076;2022-12-05T14:57:24;14.57;;;10.03;;
7539;SDS011;3811;49.006;12.076;2022-12-05T14:59:54;15.03;;;10.33;;
7539;SDS011;3811;49.006;12.076;2022-12-05T15:02:24;17.50;;;10.93;;
7539;SDS011;3811;49.006;12.076;2022-12-05T15:04:55;14.00;;;9.13;;
7539;SDS011;3811;49.006;12.076;2022-12-05T15:07:29;19.47;;;11.13;;
7539;SDS011;3811;49.006;12.076;2022-12-05T15:10:01;15.27;;;9.80;;
7539;SDS011;3811;49.006;12.076;2022-12-05T15:12:36;14.37;;;9.57;;
7539;SDS011;3811;49.006;12.076;2022-12-05T15:15:11;16.73;;;9.83;;
7539;SDS011;3811;49.006;12.076;2022-12-05T15:17:46;17.33;;;9.67;;
7539;SDS011;3811;49.006;12.076;2022-12-05T15:20:19;14.27;;;9.73;;
7539;SDS011;3811;49.006;12.076;2022-12-05T15:22:52;15.53;;;9.70;;
7539;SDS011;3811;49.006;12.076;2022-12-05T15:25:23;17.27;;;10.70;;
7539;SDS011;3811;49.006;12.076;2022-12-05T15:27:56;16.07;;;10.30;;
7539;SDS011;3811;49.006;12.076;2022-12-05T15:30:25;16.17;;;10.40;;
7539;SDS011;3811;49.006;12.076;2022-12-05T15:32:58;14.77;;;9.17;;
7539;SDS011;3811;49.006;12.076;2022-12-05T15:35:26;15.00;;;9.53;;